Track Шатовкин Максим Приморский край

Time Latitude Longitude Accuracy (66% radius in meters) Altitude (meters) Speed (km/hour) Bearing (degrees) Battery (%) GPS flag
04:21:55 43.170762 132.076044 7.5 72.099998474121 0.29999998211861 284.46899414062 43 1 delete
04:20:55 43.170721 132.076086 9 70.900001525879 0.70999997854233 135.27465820312 43 1 delete
04:20:52 43.170761 132.076042 8 69.400001525879 0.37000000476837 172.07885742188 43 1 delete
04:20:46 43.170821 132.076056 9.5 64.800003051758 0.26999998092651 245.91247558594 43 1 delete
04:20:22 43.170874 132.076042 8.5 60.299999237061 0.88999998569489 314.52209472656 43 1 delete
04:20:16 43.170812 132.076083 7 60.099998474121 0.1799999922514 67.417602539062 43 1 delete
04:19:22 43.170740 132.076085 6 62.400001525879 0.31000000238419 331.46301269531 43 1 delete
04:18:43 43.170714 132.076023 6.5 63 0.059999998658895 291.09924316406 43 1 delete
04:18:37 43.170759 132.076059 6.5 67.400001525879 0 0 43 1 delete
04:18:04 43.170797 132.076097 5 79.599998474121 0.5 41.094360351562 43 1 delete
04:17:37 43.170707 132.076152 4.5 90 0 270.45593261719 43 1 delete
04:17:10 43.170637 132.076203 4 93.199996948242 0.10999999940395 150.40832519531 43 1 delete
04:17:01 43.170682 132.076156 5 93.900001525879 0.34999999403954 297.09777832031 43 1 delete
04:16:55 43.170726 132.076108 6 92.699996948242 0 0 43 1 delete
04:16:49 43.170757 132.076059 6.5 90.300003051758 0.43999999761581 91.20849609375 43 1 delete
04:15:28 43.170802 132.076011 4.5 76.400001525879 0.1499999910593 289.9951171875 46 1 delete
04:13:16 43.170789 132.076087 6 74.900001525879 0.19999998807907 49.15283203125 46 1 delete
04:11:34 43.170744 132.076146 5.5 85.900001525879 0.55000001192093 203.72497558594 46 1 delete
04:11:13 43.170785 132.076095 5.5 88.5 0 0 46 1 delete
04:10:19 43.170817 132.076052 5 88.099998474121 0.64999997615814 282.93640136719 46 1 delete
04:09:25 43.170725 132.076102 5.5 90 0.64999997615814 170.771484375 46 1 delete
04:09:19 43.170781 132.076092 6 90.300003051758 0.68999999761581 161.40563964844 46 1 delete
04:09:13 43.170846 132.076057 6 89.099998474121 1.2400000095367 155.61584472656 46 1 delete
04:09:10 43.170892 132.076040 6.5 87.599998474121 0.89999997615814 142.48168945312 46 1 delete
04:09:04 43.170941 132.075987 6 84.099998474121 0.93999999761581 142.68493652344 46 1 delete
04:08:58 43.171023 132.075946 6.5 83.800003051758 1.4599999189377 123.38745117188 46 1 delete
04:08:55 43.171073 132.075917 6.5 84.099998474121 1.25 152.25952148438 46 1 delete
04:08:46 43.171143 132.075858 6 83.800003051758 0.76999998092651 154.19311523438 46 1 delete
04:08:34 43.171197 132.075840 5 86.400001525879 0.68000000715256 178.33557128906 46 1 delete
04:08:25 43.171255 132.075814 5.5 82.900001525879 0.89999997615814 188.22326660156 46 1 delete
04:07:58 43.171282 132.075875 8.5 83.699996948242 0.43999999761581 148.623046875 46 1 delete
04:07:37 43.171301 132.075779 5.5 84 0.099999994039536 112.939453125 46 1 delete
04:05:52 43.171276 132.075846 6 83.099998474121 0.23999999463558 334.6875 46 1 delete
04:04:58 43.171242 132.075785 7 85.5 0.37999999523163 186.64123535156 46 1 delete
04:03:13 43.171273 132.075837 6 86.300003051758 0 0 46 1 delete
04:02:49 43.171294 132.075892 5.5 80.099998474121 0.19999998807907 128.59497070312 46 1 delete
04:01:19 43.171289 132.075779 7 83.900001525879 0.70999997854233 144.39331054688 46 1 delete
03:59:19 43.171321 132.075725 3 80.099998474121 0.1499999910593 213.34350585938 46 1 delete
03:50:58 43.171350 132.075672 4 78.800003051758 0 0 49 1 delete
03:50:07 43.171312 132.075725 4 81.800003051758 0.0099999997764826 273.56506347656 49 1 delete
03:49:37 43.171249 132.075736 4 84.900001525879 0.29999998211861 41.363525390625 49 1 delete
03:49:31 43.171177 132.075764 4.5 85.800003051758 0.96999996900558 331.96838378906 49 1 delete
03:49:28 43.171135 132.075793 4.5 85.099998474121 1.0199999809265 356.28112792969 49 1 delete
03:49:22 43.171070 132.075791 4.5 84.5 1.0099999904633 356.12182617188 49 1 delete
03:49:16 43.171007 132.075774 4 84.800003051758 0.70999997854233 8.7890625 49 1 delete
03:49:13 43.170968 132.075740 4 84.900001525879 0.83999997377396 1.3238525390625 49 1 delete
03:49:10 43.170924 132.075710 4.5 87.900001525879 0.88999998569489 344.37744140625 49 1 delete
03:49:07 43.170860 132.075680 4.5 89.300003051758 1.0299999713898 345.8056640625 49 1 delete
03:49:04 43.170789 132.075613 5.5 88.199996948242 0.66999995708466 43.368530273438 49 1 delete
03:49:01 43.170780 132.075511 6.5 87.900001525879 0.97999995946884 76.701049804688 49 1 delete